Terminal Aerodrome Forecast
Issued by NWS

Home | Current Version | Previous Version | Text Only | Print | Product List | Glossary On
Versions: 1 2 3 4 5 6 7 8 9 10 11 12
437
FTUS46 KHNX 241120
TAFFAT
TAF
KFAT 241120Z 2412/2512 31010KT P6SM SCT200
     FM242300 32012G18KT P6SM SCT200
     FM251100 33011KT P6SM OVC050 PROB30 2511/2512 P6SM -SHRA
      OVC050=

USA.gov is the U.S. government's official web portal to all federal, state and local government web resources and services.